sensor_id;sensor_type;location;lat;lon;timestamp;P1;durP1;ratioP1;P2;durP2;ratioP2
27305;SDS011;14792;50.886;6.468;2023-01-23T00:00:40;117.10;;;46.77;;
27305;SDS011;14792;50.886;6.468;2023-01-23T00:03:41;116.90;;;47.73;;
27305;SDS011;14792;50.886;6.468;2023-01-23T00:06:42;124.38;;;46.20;;
27305;SDS011;14792;50.886;6.468;2023-01-23T00:09:44;117.53;;;46.28;;
27305;SDS011;14792;50.886;6.468;2023-01-23T00:12:45;111.25;;;45.78;;
27305;SDS011;14792;50.886;6.468;2023-01-23T00:15:47;102.80;;;42.10;;
27305;SDS011;14792;50.886;6.468;2023-01-23T00:18:49;106.50;;;43.68;;
27305;SDS011;14792;50.886;6.468;2023-01-23T00:21:50;101.95;;;42.33;;
27305;SDS011;14792;50.886;6.468;2023-01-23T00:24:52;91.53;;;39.40;;
27305;SDS011;14792;50.886;6.468;2023-01-23T00:27:53;84.00;;;36.80;;
27305;SDS011;14792;50.886;6.468;2023-01-23T00:34:33;75.70;;;35.40;;
27305;SDS011;14792;50.886;6.468;2023-01-23T00:37:35;76.85;;;35.20;;
27305;SDS011;14792;50.886;6.468;2023-01-23T00:40:36;82.22;;;35.00;;
27305;SDS011;14792;50.886;6.468;2023-01-23T00:43:38;75.55;;;35.45;;
27305;SDS011;14792;50.886;6.468;2023-01-23T00:46:39;77.27;;;35.28;;
27305;SDS011;14792;50.886;6.468;2023-01-23T00:49:41;75.35;;;34.92;;
27305;SDS011;14792;50.886;6.468;2023-01-23T00:52:42;75.75;;;36.08;;
27305;SDS011;14792;50.886;6.468;2023-01-23T00:55:44;75.17;;;33.60;;
27305;SDS011;14792;50.886;6.468;2023-01-23T00:58:46;77.60;;;33.83;;
27305;SDS011;14792;50.886;6.468;2023-01-23T01:01:47;76.00;;;35.17;;
27305;SDS011;14792;50.886;6.468;2023-01-23T01:04:49;72.95;;;34.27;;
27305;SDS011;14792;50.886;6.468;2023-01-23T01:07:50;74.80;;;35.75;;
27305;SDS011;14792;50.886;6.468;2023-01-23T01:10:52;74.40;;;36.20;;
27305;SDS011;14792;50.886;6.468;2023-01-23T01:14:30;80.90;;;36.53;;
27305;SDS011;14792;50.886;6.468;2023-01-23T01:17:31;80.38;;;37.08;;
27305;SDS011;14792;50.886;6.468;2023-01-23T01:20:33;76.47;;;36.20;;
27305;SDS011;14792;50.886;6.468;2023-01-23T01:23:35;73.30;;;37.45;;
27305;SDS011;14792;50.886;6.468;2023-01-23T01:26:36;78.17;;;36.42;;
27305;SDS011;14792;50.886;6.468;2023-01-23T01:29:38;77.65;;;36.03;;
27305;SDS011;14792;50.886;6.468;2023-01-23T01:32:41;75.57;;;35.60;;
27305;SDS011;14792;50.886;6.468;2023-01-23T01:35:41;78.95;;;36.00;;
27305;SDS011;14792;50.886;6.468;2023-01-23T01:38:43;76.65;;;35.23;;
27305;SDS011;14792;50.886;6.468;2023-01-23T01:41:44;75.52;;;36.28;;
27305;SDS011;14792;50.886;6.468;2023-01-23T01:44:53;81.35;;;36.25;;
27305;SDS011;14792;50.886;6.468;2023-01-23T01:47:53;79.40;;;36.70;;
27305;SDS011;14792;50.886;6.468;2023-01-23T01:50:55;81.15;;;34.98;;
27305;SDS011;14792;50.886;6.468;2023-01-23T01:54:00;77.37;;;37.30;;
27305;SDS011;14792;50.886;6.468;2023-01-23T01:57:03;74.85;;;35.45;;
27305;SDS011;14792;50.886;6.468;2023-01-23T02:00:10;68.85;;;33.55;;
27305;SDS011;14792;50.886;6.468;2023-01-23T02:14:29;73.78;;;33.18;;
27305;SDS011;14792;50.886;6.468;2023-01-23T02:21:27;76.00;;;33.18;;
27305;SDS011;14792;50.886;6.468;2023-01-23T02:44:28;65.12;;;32.75;;
27305;SDS011;14792;50.886;6.468;2023-01-23T02:51:28;46.85;;;22.77;;
27305;SDS011;14792;50.886;6.468;2023-01-23T02:55:06;63.20;;;31.23;;
27305;SDS011;14792;50.886;6.468;2023-01-23T02:58:08;68.47;;;32.67;;
27305;SDS011;14792;50.886;6.468;2023-01-23T03:01:27;67.15;;;32.90;;
27305;SDS011;14792;50.886;6.468;2023-01-23T03:04:29;65.40;;;31.37;;
27305;SDS011;14792;50.886;6.468;2023-01-23T03:07:30;69.97;;;32.03;;
27305;SDS011;14792;50.886;6.468;2023-01-23T03:10:32;63.83;;;31.65;;
27305;SDS011;14792;50.886;6.468;2023-01-23T03:13:33;63.60;;;32.20;;
27305;SDS011;14792;50.886;6.468;2023-01-23T03:16:35;62.78;;;32.48;;
27305;SDS011;14792;50.886;6.468;2023-01-23T03:19:37;64.25;;;32.55;;
27305;SDS011;14792;50.886;6.468;2023-01-23T03:22:38;62.40;;;31.33;;
27305;SDS011;14792;50.886;6.468;2023-01-23T03:25:43;57.08;;;29.02;;
27305;SDS011;14792;50.886;6.468;2023-01-23T03:28:44;63.13;;;29.70;;
27305;SDS011;14792;50.886;6.468;2023-01-23T03:32:04;58.05;;;28.45;;
27305;SDS011;14792;50.886;6.468;2023-01-23T03:35:06;59.95;;;28.92;;
27305;SDS011;14792;50.886;6.468;2023-01-23T03:38:07;61.85;;;30.82;;
27305;SDS011;14792;50.886;6.468;2023-01-23T03:41:08;66.82;;;30.27;;
27305;SDS011;14792;50.886;6.468;2023-01-23T03:44:25;56.20;;;29.48;;
27305;SDS011;14792;50.886;6.468;2023-01-23T03:47:26;62.67;;;29.37;;
27305;SDS011;14792;50.886;6.468;2023-01-23T03:50:28;62.88;;;29.60;;
27305;SDS011;14792;50.886;6.468;2023-01-23T03:53:30;63.35;;;30.85;;
27305;SDS011;14792;50.886;6.468;2023-01-23T03:56:31;59.70;;;30.50;;
27305;SDS011;14792;50.886;6.468;2023-01-23T03:59:33;61.08;;;28.50;;
27305;SDS011;14792;50.886;6.468;2023-01-23T04:02:34;57.75;;;29.67;;
27305;SDS011;14792;50.886;6.468;2023-01-23T04:05:36;54.30;;;29.65;;
27305;SDS011;14792;50.886;6.468;2023-01-23T04:08:37;56.50;;;28.83;;
27305;SDS011;14792;50.886;6.468;2023-01-23T04:11:39;59.23;;;28.23;;
27305;SDS011;14792;50.886;6.468;2023-01-23T04:14:41;54.85;;;30.08;;
27305;SDS011;14792;50.886;6.468;2023-01-23T04:17:42;55.85;;;29.18;;
27305;SDS011;14792;50.886;6.468;2023-01-23T04:20:44;56.70;;;28.52;;
27305;SDS011;14792;50.886;6.468;2023-01-23T04:23:45;62.83;;;29.25;;
27305;SDS011;14792;50.886;6.468;2023-01-23T04:26:47;56.15;;;29.18;;
27305;SDS011;14792;50.886;6.468;2023-01-23T04:29:49;54.65;;;28.02;;
27305;SDS011;14792;50.886;6.468;2023-01-23T04:32:50;59.63;;;29.18;;
27305;SDS011;14792;50.886;6.468;2023-01-23T04:35:52;51.98;;;27.93;;
27305;SDS011;14792;50.886;6.468;2023-01-23T04:38:56;52.75;;;28.25;;
27305;SDS011;14792;50.886;6.468;2023-01-23T04:41:58;61.02;;;29.65;;
27305;SDS011;14792;50.886;6.468;2023-01-23T04:44:59;59.98;;;28.73;;
27305;SDS011;14792;50.886;6.468;2023-01-23T04:48:01;54.25;;;27.27;;
27305;SDS011;14792;50.886;6.468;2023-01-23T04:51:03;54.50;;;27.85;;
27305;SDS011;14792;50.886;6.468;2023-01-23T04:54:04;53.20;;;27.42;;
27305;SDS011;14792;50.886;6.468;2023-01-23T04:57:06;55.20;;;27.73;;
27305;SDS011;14792;50.886;6.468;2023-01-23T05:00:07;58.40;;;28.40;;
27305;SDS011;14792;50.886;6.468;2023-01-23T05:03:09;51.83;;;27.32;;
27305;SDS011;14792;50.886;6.468;2023-01-23T05:06:11;53.45;;;28.20;;
27305;SDS011;14792;50.886;6.468;2023-01-23T05:09:12;55.20;;;28.77;;
27305;SDS011;14792;50.886;6.468;2023-01-23T05:12:14;56.88;;;29.45;;
27305;SDS011;14792;50.886;6.468;2023-01-23T05:15:15;55.38;;;28.67;;
27305;SDS011;14792;50.886;6.468;2023-01-23T05:18:17;57.15;;;29.30;;
27305;SDS011;14792;50.886;6.468;2023-01-23T05:21:19;57.43;;;28.75;;
27305;SDS011;14792;50.886;6.468;2023-01-23T05:24:20;58.58;;;29.50;;
27305;SDS011;14792;50.886;6.468;2023-01-23T05:27:22;56.45;;;28.65;;
27305;SDS011;14792;50.886;6.468;2023-01-23T05:30:23;57.43;;;29.72;;
27305;SDS011;14792;50.886;6.468;2023-01-23T05:33:25;58.23;;;28.70;;
27305;SDS011;14792;50.886;6.468;2023-01-23T05:36:27;51.70;;;28.20;;
27305;SDS011;14792;50.886;6.468;2023-01-23T05:39:30;52.98;;;29.95;;
27305;SDS011;14792;50.886;6.468;2023-01-23T05:42:30;55.73;;;29.42;;
27305;SDS011;14792;50.886;6.468;2023-01-23T05:45:31;50.88;;;27.85;;
27305;SDS011;14792;50.886;6.468;2023-01-23T05:48:33;49.27;;;27.35;;
27305;SDS011;14792;50.886;6.468;2023-01-23T05:51:34;49.33;;;28.83;;
27305;SDS011;14792;50.886;6.468;2023-01-23T05:54:36;50.58;;;27.90;;
27305;SDS011;14792;50.886;6.468;2023-01-23T05:57:38;47.15;;;26.60;;
27305;SDS011;14792;50.886;6.468;2023-01-23T06:00:40;48.75;;;27.65;;
27305;SDS011;14792;50.886;6.468;2023-01-23T06:03:41;47.15;;;26.95;;
27305;SDS011;14792;50.886;6.468;2023-01-23T06:06:43;50.00;;;27.00;;
27305;SDS011;14792;50.886;6.468;2023-01-23T06:09:45;48.90;;;27.05;;
27305;SDS011;14792;50.886;6.468;2023-01-23T06:12:46;48.73;;;26.23;;
27305;SDS011;14792;50.886;6.468;2023-01-23T06:15:48;47.40;;;26.37;;
27305;SDS011;14792;50.886;6.468;2023-01-23T06:26:30;48.13;;;27.00;;
27305;SDS011;14792;50.886;6.468;2023-01-23T06:33:29;48.63;;;27.05;;
27305;SDS011;14792;50.886;6.468;2023-01-23T06:40:29;48.52;;;27.10;;
27305;SDS011;14792;50.886;6.468;2023-01-23T06:51:29;54.38;;;28.47;;
27305;SDS011;14792;50.886;6.468;2023-01-23T06:54:31;51.60;;;26.65;;
27305;SDS011;14792;50.886;6.468;2023-01-23T06:57:32;50.95;;;28.62;;
27305;SDS011;14792;50.886;6.468;2023-01-23T07:16:30;50.10;;;26.68;;
27305;SDS011;14792;50.886;6.468;2023-01-23T07:27:27;51.70;;;27.35;;
27305;SDS011;14792;50.886;6.468;2023-01-23T07:34:28;54.50;;;29.45;;
27305;SDS011;14792;50.886;6.468;2023-01-23T07:41:29;49.40;;;29.35;;
27305;SDS011;14792;50.886;6.468;2023-01-23T07:44:31;66.45;;;35.15;;
27305;SDS011;14792;50.886;6.468;2023-01-23T07:48:27;53.65;;;29.85;;
27305;SDS011;14792;50.886;6.468;2023-01-23T07:59:27;45.52;;;27.30;;
27305;SDS011;14792;50.886;6.468;2023-01-23T08:10:28;50.30;;;27.65;;
27305;SDS011;14792;50.886;6.468;2023-01-23T08:13:30;46.30;;;26.15;;
27305;SDS011;14792;50.886;6.468;2023-01-23T08:20:27;43.90;;;25.95;;
27305;SDS011;14792;50.886;6.468;2023-01-23T08:27:29;44.67;;;26.27;;
27305;SDS011;14792;50.886;6.468;2023-01-23T08:34:27;48.50;;;25.15;;
27305;SDS011;14792;50.886;6.468;2023-01-23T08:37:28;42.23;;;25.15;;
27305;SDS011;14792;50.886;6.468;2023-01-23T08:40:30;45.15;;;24.80;;
27305;SDS011;14792;50.886;6.468;2023-01-23T08:43:32;45.50;;;25.37;;
27305;SDS011;14792;50.886;6.468;2023-01-23T08:46:33;45.45;;;25.55;;
27305;SDS011;14792;50.886;6.468;2023-01-23T08:49:35;44.50;;;26.33;;
27305;SDS011;14792;50.886;6.468;2023-01-23T08:52:36;43.68;;;24.15;;
27305;SDS011;14792;50.886;6.468;2023-01-23T08:55:38;46.53;;;25.88;;
27305;SDS011;14792;50.886;6.468;2023-01-23T08:58:40;43.50;;;23.55;;
27305;SDS011;14792;50.886;6.468;2023-01-23T09:01:41;47.83;;;25.68;;
27305;SDS011;14792;50.886;6.468;2023-01-23T09:04:43;42.85;;;24.70;;
27305;SDS011;14792;50.886;6.468;2023-01-23T09:11:29;45.73;;;23.52;;
27305;SDS011;14792;50.886;6.468;2023-01-23T09:14:30;48.10;;;26.05;;
27305;SDS011;14792;50.886;6.468;2023-01-23T09:17:32;43.90;;;25.27;;
27305;SDS011;14792;50.886;6.468;2023-01-23T09:20:33;53.30;;;34.80;;
27305;SDS011;14792;50.886;6.468;2023-01-23T09:23:35;45.25;;;25.12;;
27305;SDS011;14792;50.886;6.468;2023-01-23T09:26:37;283.70;;;39.75;;
27305;SDS011;14792;50.886;6.468;2023-01-23T09:29:38;44.05;;;24.40;;
27305;SDS011;14792;50.886;6.468;2023-01-23T09:32:40;42.15;;;24.55;;
27305;SDS011;14792;50.886;6.468;2023-01-23T09:35:41;51.23;;;24.52;;
27305;SDS011;14792;50.886;6.468;2023-01-23T09:38:43;47.17;;;24.10;;
27305;SDS011;14792;50.886;6.468;2023-01-23T09:41:45;41.33;;;22.90;;
27305;SDS011;14792;50.886;6.468;2023-01-23T09:44:51;37.48;;;23.05;;
27305;SDS011;14792;50.886;6.468;2023-01-23T09:48:11;37.38;;;23.02;;
27305;SDS011;14792;50.886;6.468;2023-01-23T09:51:15;42.62;;;23.92;;
27305;SDS011;14792;50.886;6.468;2023-01-23T09:57:35;48.58;;;30.65;;
27305;SDS011;14792;50.886;6.468;2023-01-23T10:00:54;41.02;;;25.02;;
27305;SDS011;14792;50.886;6.468;2023-01-23T10:03:57;42.45;;;23.55;;
27305;SDS011;14792;50.886;6.468;2023-01-23T10:07:05;40.95;;;24.85;;
27305;SDS011;14792;50.886;6.468;2023-01-23T10:19:48;40.15;;;24.50;;
27305;SDS011;14792;50.886;6.468;2023-01-23T10:26:17;39.53;;;23.55;;
27305;SDS011;14792;50.886;6.468;2023-01-23T10:29:33;42.55;;;23.98;;
27305;SDS011;14792;50.886;6.468;2023-01-23T10:32:39;42.10;;;25.45;;
27305;SDS011;14792;50.886;6.468;2023-01-23T10:50:35;43.80;;;22.70;;
27305;SDS011;14792;50.886;6.468;2023-01-23T10:53:36;43.60;;;24.35;;
27305;SDS011;14792;50.886;6.468;2023-01-23T10:59:55;45.58;;;23.50;;
27305;SDS011;14792;50.886;6.468;2023-01-23T11:02:56;42.98;;;23.20;;
27305;SDS011;14792;50.886;6.468;2023-01-23T11:09:01;49.98;;;24.75;;
27305;SDS011;14792;50.886;6.468;2023-01-23T11:12:03;55.92;;;28.67;;
27305;SDS011;14792;50.886;6.468;2023-01-23T11:15:21;45.23;;;23.38;;
27305;SDS011;14792;50.886;6.468;2023-01-23T11:18:29;50.58;;;23.87;;
27305;SDS011;14792;50.886;6.468;2023-01-23T11:21:29;56.40;;;27.98;;
27305;SDS011;14792;50.886;6.468;2023-01-23T11:27:31;68.78;;;29.32;;
27305;SDS011;14792;50.886;6.468;2023-01-23T11:30:37;72.58;;;35.98;;
27305;SDS011;14792;50.886;6.468;2023-01-23T11:33:41;56.33;;;30.10;;
27305;SDS011;14792;50.886;6.468;2023-01-23T11:36:56;51.13;;;25.05;;
27305;SDS011;14792;50.886;6.468;2023-01-23T11:40:02;48.55;;;25.15;;
27305;SDS011;14792;50.886;6.468;2023-01-23T11:43:09;49.27;;;24.63;;
27305;SDS011;14792;50.886;6.468;2023-01-23T11:46:13;44.33;;;24.40;;
27305;SDS011;14792;50.886;6.468;2023-01-23T11:49:26;42.13;;;24.02;;
27305;SDS011;14792;50.886;6.468;2023-01-23T11:53:03;42.62;;;23.60;;
27305;SDS011;14792;50.886;6.468;2023-01-23T11:56:08;46.90;;;23.98;;
27305;SDS011;14792;50.886;6.468;2023-01-23T11:59:10;59.53;;;25.68;;
27305;SDS011;14792;50.886;6.468;2023-01-23T12:05:31;47.50;;;23.60;;
27305;SDS011;14792;50.886;6.468;2023-01-23T12:12:05;45.10;;;25.43;;
27305;SDS011;14792;50.886;6.468;2023-01-23T12:15:31;39.10;;;23.17;;
27305;SDS011;14792;50.886;6.468;2023-01-23T12:18:48;44.93;;;23.38;;
27305;SDS011;14792;50.886;6.468;2023-01-23T12:25:17;42.08;;;22.17;;
27305;SDS011;14792;50.886;6.468;2023-01-23T12:28:22;39.25;;;22.02;;
27305;SDS011;14792;50.886;6.468;2023-01-23T12:31:28;46.33;;;25.12;;
27305;SDS011;14792;50.886;6.468;2023-01-23T12:40:52;43.05;;;23.25;;
27305;SDS011;14792;50.886;6.468;2023-01-23T12:43:51;44.05;;;23.47;;
27305;SDS011;14792;50.886;6.468;2023-01-23T12:46:52;48.58;;;23.62;;
27305;SDS011;14792;50.886;6.468;2023-01-23T12:50:03;40.35;;;21.95;;
27305;SDS011;14792;50.886;6.468;2023-01-23T12:53:07;34.95;;;20.55;;
27305;SDS011;14792;50.886;6.468;2023-01-23T12:56:09;34.08;;;20.95;;
27305;SDS011;14792;50.886;6.468;2023-01-23T13:02:32;55.52;;;34.18;;
27305;SDS011;14792;50.886;6.468;2023-01-23T13:12:19;32.38;;;19.15;;
27305;SDS011;14792;50.886;6.468;2023-01-23T13:15:22;33.45;;;19.52;;
27305;SDS011;14792;50.886;6.468;2023-01-23T13:18:25;31.30;;;18.60;;
27305;SDS011;14792;50.886;6.468;2023-01-23T13:21:27;35.30;;;19.10;;
27305;SDS011;14792;50.886;6.468;2023-01-23T13:24:49;29.48;;;17.87;;
27305;SDS011;14792;50.886;6.468;2023-01-23T13:28:52;24.47;;;14.07;;
27305;SDS011;14792;50.886;6.468;2023-01-23T13:31:36;27.13;;;11.80;;
27305;SDS011;14792;50.886;6.468;2023-01-23T13:34:42;26.50;;;14.38;;
27305;SDS011;14792;50.886;6.468;2023-01-23T13:37:46;33.75;;;19.10;;
27305;SDS011;14792;50.886;6.468;2023-01-23T13:47:26;41.25;;;23.90;;
27305;SDS011;14792;50.886;6.468;2023-01-23T13:53:47;25.25;;;16.07;;
27305;SDS011;14792;50.886;6.468;2023-01-23T13:57:05;27.13;;;16.37;;
27305;SDS011;14792;50.886;6.468;2023-01-23T14:00:19;25.68;;;16.20;;
27305;SDS011;14792;50.886;6.468;2023-01-23T14:06:43;26.48;;;15.75;;
27305;SDS011;14792;50.886;6.468;2023-01-23T14:09:45;27.67;;;16.55;;
27305;SDS011;14792;50.886;6.468;2023-01-23T14:12:46;25.15;;;16.37;;
27305;SDS011;14792;50.886;6.468;2023-01-23T14:15:49;25.88;;;17.15;;
27305;SDS011;14792;50.886;6.468;2023-01-23T14:19:23;30.75;;;16.00;;
27305;SDS011;14792;50.886;6.468;2023-01-23T14:22:27;29.67;;;15.80;;
27305;SDS011;14792;50.886;6.468;2023-01-23T14:25:28;26.10;;;15.43;;
27305;SDS011;14792;50.886;6.468;2023-01-23T14:28:30;24.52;;;16.30;;
27305;SDS011;14792;50.886;6.468;2023-01-23T14:31:33;25.43;;;15.40;;
27305;SDS011;14792;50.886;6.468;2023-01-23T14:34:36;25.45;;;15.63;;
27305;SDS011;14792;50.886;6.468;2023-01-23T14:37:35;25.55;;;15.43;;
27305;SDS011;14792;50.886;6.468;2023-01-23T14:40:39;27.80;;;16.23;;
27305;SDS011;14792;50.886;6.468;2023-01-23T14:43:39;26.95;;;15.40;;
27305;SDS011;14792;50.886;6.468;2023-01-23T14:46:40;28.77;;;16.48;;
27305;SDS011;14792;50.886;6.468;2023-01-23T14:49:41;28.27;;;16.75;;
27305;SDS011;14792;50.886;6.468;2023-01-23T14:52:43;30.62;;;17.30;;
27305;SDS011;14792;50.886;6.468;2023-01-23T14:55:45;26.10;;;16.93;;
27305;SDS011;14792;50.886;6.468;2023-01-23T14:58:46;26.12;;;17.00;;
27305;SDS011;14792;50.886;6.468;2023-01-23T15:01:54;29.98;;;16.97;;
27305;SDS011;14792;50.886;6.468;2023-01-23T15:08:25;23.07;;;14.70;;
27305;SDS011;14792;50.886;6.468;2023-01-23T15:11:26;29.72;;;16.27;;
27305;SDS011;14792;50.886;6.468;2023-01-23T15:14:29;25.23;;;15.32;;
27305;SDS011;14792;50.886;6.468;2023-01-23T15:17:28;25.23;;;15.60;;
27305;SDS011;14792;50.886;6.468;2023-01-23T15:23:38;58.78;;;30.10;;
27305;SDS011;14792;50.886;6.468;2023-01-23T15:26:36;36.68;;;21.60;;
27305;SDS011;14792;50.886;6.468;2023-01-23T15:29:37;32.95;;;19.80;;
27305;SDS011;14792;50.886;6.468;2023-01-23T15:32:39;35.70;;;16.85;;
27305;SDS011;14792;50.886;6.468;2023-01-23T15:35:41;38.15;;;19.87;;
27305;SDS011;14792;50.886;6.468;2023-01-23T15:38:45;26.52;;;15.30;;
27305;SDS011;14792;50.886;6.468;2023-01-23T15:41:45;25.65;;;15.88;;
27305;SDS011;14792;50.886;6.468;2023-01-23T15:44:51;25.02;;;14.23;;
27305;SDS011;14792;50.886;6.468;2023-01-23T15:47:53;32.20;;;18.40;;
27305;SDS011;14792;50.886;6.468;2023-01-23T15:50:54;26.33;;;15.70;;
27305;SDS011;14792;50.886;6.468;2023-01-23T15:53:56;25.30;;;15.40;;
27305;SDS011;14792;50.886;6.468;2023-01-23T15:56:58;23.77;;;15.10;;
27305;SDS011;14792;50.886;6.468;2023-01-23T15:59:59;30.75;;;15.80;;
27305;SDS011;14792;50.886;6.468;2023-01-23T16:06:02;23.87;;;15.58;;
27305;SDS011;14792;50.886;6.468;2023-01-23T16:09:04;29.52;;;16.32;;
27305;SDS011;14792;50.886;6.468;2023-01-23T16:12:08;26.30;;;16.02;;
27305;SDS011;14792;50.886;6.468;2023-01-23T16:15:14;26.57;;;17.65;;
27305;SDS011;14792;50.886;6.468;2023-01-23T16:18:15;33.02;;;17.40;;
27305;SDS011;14792;50.886;6.468;2023-01-23T16:21:16;27.05;;;16.90;;
27305;SDS011;14792;50.886;6.468;2023-01-23T16:24:22;27.75;;;16.95;;
27305;SDS011;14792;50.886;6.468;2023-01-23T16:27:20;27.58;;;16.45;;
27305;SDS011;14792;50.886;6.468;2023-01-23T16:30:22;30.55;;;18.17;;
27305;SDS011;14792;50.886;6.468;2023-01-23T16:33:22;27.27;;;18.00;;
27305;SDS011;14792;50.886;6.468;2023-01-23T16:36:24;35.08;;;18.35;;
27305;SDS011;14792;50.886;6.468;2023-01-23T16:39:26;29.90;;;18.30;;
27305;SDS011;14792;50.886;6.468;2023-01-23T16:42:28;48.13;;;19.27;;
27305;SDS011;14792;50.886;6.468;2023-01-23T16:45:29;58.23;;;23.52;;
27305;SDS011;14792;50.886;6.468;2023-01-23T16:48:30;46.40;;;20.00;;
27305;SDS011;14792;50.886;6.468;2023-01-23T16:51:32;42.23;;;19.40;;
27305;SDS011;14792;50.886;6.468;2023-01-23T16:54:34;47.93;;;18.98;;
27305;SDS011;14792;50.886;6.468;2023-01-23T16:57:35;47.27;;;19.20;;
27305;SDS011;14792;50.886;6.468;2023-01-23T17:00:37;54.60;;;20.48;;
27305;SDS011;14792;50.886;6.468;2023-01-23T17:03:38;56.08;;;22.37;;
27305;SDS011;14792;50.886;6.468;2023-01-23T17:06:42;47.25;;;19.80;;
27305;SDS011;14792;50.886;6.468;2023-01-23T17:09:44;43.90;;;19.20;;
27305;SDS011;14792;50.886;6.468;2023-01-23T17:12:46;39.48;;;18.62;;
27305;SDS011;14792;50.886;6.468;2023-01-23T17:15:48;49.15;;;18.32;;
27305;SDS011;14792;50.886;6.468;2023-01-23T17:18:49;45.15;;;18.07;;
27305;SDS011;14792;50.886;6.468;2023-01-23T17:21:50;40.83;;;20.25;;
27305;SDS011;14792;50.886;6.468;2023-01-23T17:24:52;39.35;;;18.00;;
27305;SDS011;14792;50.886;6.468;2023-01-23T17:27:54;37.70;;;18.90;;
27305;SDS011;14792;50.886;6.468;2023-01-23T17:30:56;41.80;;;19.57;;
27305;SDS011;14792;50.886;6.468;2023-01-23T17:33:57;35.00;;;18.20;;
27305;SDS011;14792;50.886;6.468;2023-01-23T17:36:58;42.40;;;18.87;;
27305;SDS011;14792;50.886;6.468;2023-01-23T17:40:00;37.17;;;19.45;;
27305;SDS011;14792;50.886;6.468;2023-01-23T17:43:01;38.17;;;19.15;;
27305;SDS011;14792;50.886;6.468;2023-01-23T17:46:03;46.53;;;24.27;;
27305;SDS011;14792;50.886;6.468;2023-01-23T17:52:27;41.63;;;19.45;;
27305;SDS011;14792;50.886;6.468;2023-01-23T17:55:29;52.45;;;19.40;;
27305;SDS011;14792;50.886;6.468;2023-01-23T17:58:31;47.70;;;20.25;;
27305;SDS011;14792;50.886;6.468;2023-01-23T18:01:32;38.92;;;20.48;;
27305;SDS011;14792;50.886;6.468;2023-01-23T18:04:34;41.48;;;20.08;;
27305;SDS011;14792;50.886;6.468;2023-01-23T18:07:35;47.48;;;20.62;;
27305;SDS011;14792;50.886;6.468;2023-01-23T18:10:37;44.48;;;20.05;;
27305;SDS011;14792;50.886;6.468;2023-01-23T18:13:45;58.25;;;22.13;;
27305;SDS011;14792;50.886;6.468;2023-01-23T18:16:46;51.50;;;22.15;;
27305;SDS011;14792;50.886;6.468;2023-01-23T18:19:48;55.08;;;25.10;;
27305;SDS011;14792;50.886;6.468;2023-01-23T18:22:50;51.02;;;20.70;;
27305;SDS011;14792;50.886;6.468;2023-01-23T18:25:54;39.15;;;22.90;;
27305;SDS011;14792;50.886;6.468;2023-01-23T18:29:00;48.68;;;25.95;;
27305;SDS011;14792;50.886;6.468;2023-01-23T18:35:23;52.13;;;26.52;;
27305;SDS011;14792;50.886;6.468;2023-01-23T18:45:17;50.95;;;21.73;;
27305;SDS011;14792;50.886;6.468;2023-01-23T18:48:18;58.15;;;21.35;;
27305;SDS011;14792;50.886;6.468;2023-01-23T18:55:01;53.58;;;18.92;;
27305;SDS011;14792;50.886;6.468;2023-01-23T18:58:24;48.68;;;20.02;;
27305;SDS011;14792;50.886;6.468;2023-01-23T19:04:50;33.40;;;17.35;;
27305;SDS011;14792;50.886;6.468;2023-01-23T19:07:49;40.00;;;18.15;;
27305;SDS011;14792;50.886;6.468;2023-01-23T19:10:50;46.83;;;18.75;;
27305;SDS011;14792;50.886;6.468;2023-01-23T19:17:15;40.92;;;19.98;;
27305;SDS011;14792;50.886;6.468;2023-01-23T19:26:47;32.25;;;19.10;;
27305;SDS011;14792;50.886;6.468;2023-01-23T19:29:49;33.67;;;19.77;;
27305;SDS011;14792;50.886;6.468;2023-01-23T19:32:50;41.50;;;22.67;;
27305;SDS011;14792;50.886;6.468;2023-01-23T19:35:52;32.13;;;20.20;;
27305;SDS011;14792;50.886;6.468;2023-01-23T19:38:54;31.07;;;19.87;;
27305;SDS011;14792;50.886;6.468;2023-01-23T19:41:56;36.33;;;19.98;;
27305;SDS011;14792;50.886;6.468;2023-01-23T19:44:57;32.58;;;20.40;;
27305;SDS011;14792;50.886;6.468;2023-01-23T19:47:59;37.80;;;21.40;;
27305;SDS011;14792;50.886;6.468;2023-01-23T19:51:01;35.92;;;20.43;;
27305;SDS011;14792;50.886;6.468;2023-01-23T19:54:02;37.35;;;19.48;;
27305;SDS011;14792;50.886;6.468;2023-01-23T19:57:04;37.98;;;18.70;;
27305;SDS011;14792;50.886;6.468;2023-01-23T20:00:05;31.62;;;18.05;;
27305;SDS011;14792;50.886;6.468;2023-01-23T20:03:07;29.52;;;19.07;;
27305;SDS011;14792;50.886;6.468;2023-01-23T20:06:09;34.05;;;19.90;;
27305;SDS011;14792;50.886;6.468;2023-01-23T20:09:11;33.18;;;17.65;;
27305;SDS011;14792;50.886;6.468;2023-01-23T20:12:12;29.57;;;18.07;;
27305;SDS011;14792;50.886;6.468;2023-01-23T20:15:14;35.25;;;18.95;;
27305;SDS011;14792;50.886;6.468;2023-01-23T20:18:15;32.55;;;17.95;;
27305;SDS011;14792;50.886;6.468;2023-01-23T20:21:17;31.50;;;18.35;;
27305;SDS011;14792;50.886;6.468;2023-01-23T20:24:18;36.73;;;20.00;;
27305;SDS011;14792;50.886;6.468;2023-01-23T20:27:20;27.98;;;17.42;;
27305;SDS011;14792;50.886;6.468;2023-01-23T20:30:21;27.82;;;17.87;;
27305;SDS011;14792;50.886;6.468;2023-01-23T20:33:23;29.95;;;16.77;;
27305;SDS011;14792;50.886;6.468;2023-01-23T20:36:26;29.70;;;17.67;;
27305;SDS011;14792;50.886;6.468;2023-01-23T20:39:29;30.77;;;17.35;;
27305;SDS011;14792;50.886;6.468;2023-01-23T20:42:30;33.20;;;16.52;;
27305;SDS011;14792;50.886;6.468;2023-01-23T20:45:32;36.50;;;18.05;;
27305;SDS011;14792;50.886;6.468;2023-01-23T20:48:34;41.15;;;18.40;;
27305;SDS011;14792;50.886;6.468;2023-01-23T20:51:35;37.98;;;17.73;;
27305;SDS011;14792;50.886;6.468;2023-01-23T20:57:45;67.32;;;26.87;;
27305;SDS011;14792;50.886;6.468;2023-01-23T21:01:05;37.85;;;17.87;;
27305;SDS011;14792;50.886;6.468;2023-01-23T21:04:06;28.12;;;16.25;;
27305;SDS011;14792;50.886;6.468;2023-01-23T21:07:11;32.48;;;18.10;;
27305;SDS011;14792;50.886;6.468;2023-01-23T21:10:12;29.32;;;18.00;;
27305;SDS011;14792;50.886;6.468;2023-01-23T21:13:14;31.37;;;18.17;;
27305;SDS011;14792;50.886;6.468;2023-01-23T21:16:16;28.27;;;17.60;;
27305;SDS011;14792;50.886;6.468;2023-01-23T21:19:17;26.15;;;17.27;;
27305;SDS011;14792;50.886;6.468;2023-01-23T21:22:19;35.78;;;17.15;;
27305;SDS011;14792;50.886;6.468;2023-01-23T21:25:20;32.95;;;18.42;;
27305;SDS011;14792;50.886;6.468;2023-01-23T21:28:22;35.45;;;20.70;;
27305;SDS011;14792;50.886;6.468;2023-01-23T21:31:25;30.45;;;18.70;;
27305;SDS011;14792;50.886;6.468;2023-01-23T21:34:28;38.25;;;18.95;;
27305;SDS011;14792;50.886;6.468;2023-01-23T21:37:30;50.50;;;24.63;;
27305;SDS011;14792;50.886;6.468;2023-01-23T21:40:31;54.98;;;24.15;;
27305;SDS011;14792;50.886;6.468;2023-01-23T21:43:33;59.30;;;28.80;;
27305;SDS011;14792;50.886;6.468;2023-01-23T21:46:35;35.03;;;19.55;;
27305;SDS011;14792;50.886;6.468;2023-01-23T21:49:36;30.40;;;17.35;;
27305;SDS011;14792;50.886;6.468;2023-01-23T21:52:38;30.68;;;17.37;;
27305;SDS011;14792;50.886;6.468;2023-01-23T21:55:40;40.58;;;21.57;;
27305;SDS011;14792;50.886;6.468;2023-01-23T21:58:41;37.78;;;18.65;;
27305;SDS011;14792;50.886;6.468;2023-01-23T22:01:43;33.65;;;19.65;;
27305;SDS011;14792;50.886;6.468;2023-01-23T22:04:45;44.27;;;24.37;;